createdAt,value
2023-03-19T00:00:29.484Z,100643.40
2023-03-19T00:02:56.355Z,100642.34
2023-03-19T00:05:23.433Z,100637.55
2023-03-19T00:07:50.502Z,100636.44
2023-03-19T00:10:19.046Z,100633.98
2023-03-19T00:12:46.818Z,100632.50
2023-03-19T00:15:15.478Z,100628.34
2023-03-19T00:17:43.366Z,100623.48
2023-03-19T00:20:11.610Z,100622.41
2023-03-19T00:22:41.502Z,100618.69
2023-03-19T00:25:09.708Z,100614.67
2023-03-19T00:27:37.854Z,100610.89
2023-03-19T00:30:06.139Z,100605.88
2023-03-19T00:32:35.206Z,100603.80
2023-03-19T00:35:03.087Z,100604.74
2023-03-19T00:37:29.948Z,100600.42
2023-03-19T00:40:01.807Z,100604.95
2023-03-19T00:42:30.994Z,100602.52
2023-03-19T00:44:57.596Z,100599.31
2023-03-19T00:47:26.116Z,100599.16
2023-03-19T00:49:53.615Z,100600.74
2023-03-19T00:52:20.247Z,100602.19
2023-03-19T00:54:47.282Z,100596.98
2023-03-19T00:57:14.072Z,100598.50
2023-03-19T00:59:40.902Z,100595.29
2023-03-19T01:02:08.286Z,100590.24
2023-03-19T01:04:35.391Z,100590.58
2023-03-19T01:07:04.417Z,100593.83
2023-03-19T01:09:35.284Z,100591.03
2023-03-19T01:12:05.221Z,100593.73
2023-03-19T01:14:33.743Z,100595.70
2023-03-19T01:17:00.712Z,100597.92
2023-03-19T01:19:28.115Z,100594.19
2023-03-19T01:21:54.996Z,100594.88
2023-03-19T01:24:22.804Z,100593.17
2023-03-19T01:26:54.316Z,100592.16
2023-03-19T01:29:36.262Z,100594.56
2023-03-19T01:32:13.964Z,100586.91
2023-03-19T01:35:09.591Z,100586.34
2023-03-19T01:37:39.076Z,100587.91
2023-03-19T01:40:07.013Z,100589.22
2023-03-19T01:42:33.662Z,100590.95
2023-03-19T01:45:41.890Z,100591.61
2023-03-19T01:48:44.591Z,100586.90
2023-03-19T01:51:16.779Z,100585.90
2023-03-19T01:53:52.247Z,100588.47
2023-03-19T01:57:05.961Z,100592.46
2023-03-19T02:00:04.804Z,100592.08
2023-03-19T02:02:45.222Z,100592.10
2023-03-19T02:05:24.895Z,100591.77
2023-03-19T02:07:57.814Z,100591.86
2023-03-19T02:10:25.631Z,100595.34
2023-03-19T02:12:52.875Z,100598.18
2023-03-19T02:15:19.892Z,100601.75
2023-03-19T02:17:47.135Z,100606.09
2023-03-19T02:20:27.385Z,100606.09
2023-03-19T02:23:00.392Z,100609.08
2023-03-19T02:25:32.840Z,100609.77
2023-03-19T02:28:02.314Z,100609.68
2023-03-19T02:30:32.384Z,100614.07
2023-03-19T02:33:04.319Z,100611.80
2023-03-19T02:35:32.590Z,100613.06
2023-03-19T02:38:00.517Z,100617.86
2023-03-19T02:40:30.309Z,100619.77
2023-03-19T02:42:58.274Z,100619.23
2023-03-19T02:45:29.280Z,100618.52
2023-03-19T02:47:56.334Z,100618.34
2023-03-19T02:50:23.111Z,100620.30
2023-03-19T02:52:50.094Z,100618.65
2023-03-19T02:55:17.854Z,100619.42
2023-03-19T02:57:45.130Z,100617.66
2023-03-19T03:00:18.192Z,100622.80
2023-03-19T03:02:45.329Z,100626.08
2023-03-19T03:05:12.992Z,100624.40
2023-03-19T03:07:44.450Z,100626.73
2023-03-19T03:10:11.466Z,100623.77
2023-03-19T03:12:38.287Z,100622.58
2023-03-19T03:15:08.574Z,100622.20
2023-03-19T03:17:39.226Z,100622.70
2023-03-19T03:20:10.823Z,100622.68
2023-03-19T03:22:39.991Z,100629.98
2023-03-19T03:25:07.118Z,100628.58
2023-03-19T03:27:34.301Z,100631.29
2023-03-19T03:30:01.117Z,100631.41
2023-03-19T03:32:28.074Z,100629.31
2023-03-19T03:34:54.865Z,100628.67
2023-03-19T03:37:22.601Z,100626.77
2023-03-19T03:39:49.257Z,100624.68
2023-03-19T03:42:15.823Z,100627.63
2023-03-19T03:44:43.080Z,100627.29
2023-03-19T03:47:12.590Z,100629.32
2023-03-19T03:49:40.963Z,100627.39
2023-03-19T03:52:08.488Z,100626.08
2023-03-19T03:54:35.164Z,100624.86
2023-03-19T03:57:03.522Z,100624.80
2023-03-19T03:59:37.097Z,100626.83
2023-03-19T04:02:03.761Z,100623.01
2023-03-19T04:04:30.477Z,100625.62
2023-03-19T04:07:04.046Z,100626.75
2023-03-19T04:09:40.590Z,100622.23
2023-03-19T04:12:08.877Z,100622.19
2023-03-19T04:14:41.556Z,100620.87
2023-03-19T04:17:08.702Z,100619.33
2023-03-19T04:19:35.697Z,100619.50
2023-03-19T04:22:03.242Z,100620.53
2023-03-19T04:24:32.586Z,100619.30
2023-03-19T04:27:00.240Z,100616.02
2023-03-19T04:29:27.662Z,100615.20
2023-03-19T04:31:54.399Z,100615.17
2023-03-19T04:34:21.055Z,100611.77
2023-03-19T04:36:50.272Z,100611.54
2023-03-19T04:39:17.556Z,100613.14
2023-03-19T04:41:46.598Z,100613.65
2023-03-19T04:44:41.559Z,100611.95
2023-03-19T04:47:09.877Z,100609.73
2023-03-19T04:49:48.273Z,100617.83
2023-03-19T04:52:15.487Z,100616.24
2023-03-19T04:54:44.000Z,100617.29
2023-03-19T04:57:11.804Z,100615.48
2023-03-19T04:59:42.145Z,100616.73
2023-03-19T05:02:09.604Z,100613.90
2023-03-19T05:04:37.210Z,100617.90
2023-03-19T05:07:07.943Z,100621.98
2023-03-19T05:09:35.787Z,100621.48
2023-03-19T05:12:02.358Z,100616.73
2023-03-19T05:14:34.669Z,100619.38
2023-03-19T05:17:06.902Z,100619.88
2023-03-19T05:19:52.248Z,100618.70
2023-03-19T05:22:20.635Z,100613.78
2023-03-19T05:24:47.520Z,100613.35
2023-03-19T05:27:14.466Z,100613.58
2023-03-19T05:29:47.574Z,100611.81
2023-03-19T05:32:52.564Z,100616.11
2023-03-19T05:35:27.191Z,100613.30
2023-03-19T05:37:54.233Z,100611.32
2023-03-19T05:40:22.670Z,100612.61
2023-03-19T05:42:50.708Z,100613.63
2023-03-19T05:45:21.906Z,100611.16
2023-03-19T05:47:52.384Z,100610.91
2023-03-19T05:50:19.239Z,100607.10
2023-03-19T05:53:04.456Z,100607.69
2023-03-19T05:55:32.326Z,100611.48
2023-03-19T05:58:10.023Z,100605.20
2023-03-19T06:00:38.396Z,100609.14
2023-03-19T06:03:05.080Z,100608.02
2023-03-19T06:05:43.245Z,100611.03
2023-03-19T06:08:29.354Z,100612.58
2023-03-19T06:11:06.305Z,100619.09
2023-03-19T06:13:33.551Z,100618.30
2023-03-19T06:16:06.048Z,100621.96
2023-03-19T06:18:45.167Z,100620.59
2023-03-19T06:21:12.616Z,100621.88
2023-03-19T06:23:41.142Z,100616.42
2023-03-19T06:26:16.678Z,100617.44
2023-03-19T06:28:53.181Z,100615.74
2023-03-19T06:31:19.984Z,100619.46
2023-03-19T06:33:56.461Z,100617.39
2023-03-19T06:36:26.426Z,100624.35
2023-03-19T06:38:57.819Z,100623.50
2023-03-19T06:41:25.184Z,100624.64
2023-03-19T06:43:52.638Z,100624.75
2023-03-19T06:46:19.335Z,100626.44
2023-03-19T06:48:46.448Z,100625.17
2023-03-19T06:51:19.747Z,100627.09
2023-03-19T06:53:46.441Z,100621.31
2023-03-19T06:56:12.997Z,100625.34
2023-03-19T06:58:46.492Z,100627.33
2023-03-19T07:01:13.659Z,100625.86
2023-03-19T07:03:40.711Z,100626.66
2023-03-19T07:06:07.274Z,100624.69
2023-03-19T07:08:34.361Z,100620.17
2023-03-19T07:11:05.484Z,100623.16
2023-03-19T07:13:33.106Z,100622.48
2023-03-19T07:16:00.318Z,100624.20
2023-03-19T07:18:26.965Z,100628.89
2023-03-19T07:20:54.809Z,100628.36
2023-03-19T07:23:21.588Z,100632.52
2023-03-19T07:25:48.402Z,100633.49
2023-03-19T07:28:15.860Z,100632.88
2023-03-19T07:30:43.561Z,100632.92
2023-03-19T07:33:10.379Z,100632.48
2023-03-19T07:35:37.270Z,100632.46
2023-03-19T07:38:04.099Z,100632.39
2023-03-19T07:40:35.022Z,100633.73
2023-03-19T07:43:02.645Z,100637.74
2023-03-19T07:45:30.674Z,100639.48
2023-03-19T07:48:03.067Z,100640.27
2023-03-19T07:50:30.672Z,100643.73
2023-03-19T07:52:57.398Z,100641.91
2023-03-19T07:55:24.032Z,100642.58
2023-03-19T07:57:50.872Z,100642.19
2023-03-19T08:00:22.009Z,100644.16
2023-03-19T08:02:48.878Z,100647.33
2023-03-19T08:05:16.243Z,100645.20
2023-03-19T08:07:48.825Z,100641.50
2023-03-19T08:10:15.742Z,100642.92
2023-03-19T08:12:42.703Z,100639.17
2023-03-19T08:15:15.343Z,100630.24
2023-03-19T08:17:42.989Z,100635.06
2023-03-19T08:20:11.460Z,100632.86
2023-03-19T08:22:38.562Z,100633.73
2023-03-19T08:25:06.868Z,100635.65
2023-03-19T08:27:35.425Z,100635.40
2023-03-19T08:30:06.877Z,100631.73
2023-03-19T08:32:34.571Z,100629.33
2023-03-19T08:35:05.510Z,100627.21
2023-03-19T08:37:33.740Z,100624.48
2023-03-19T08:40:00.605Z,100620.86
2023-03-19T08:42:30.430Z,100620.31
2023-03-19T08:44:58.250Z,100620.41
2023-03-19T08:47:25.110Z,100616.75
2023-03-19T08:49:52.888Z,100615.41
2023-03-19T08:52:20.097Z,100611.69
2023-03-19T08:54:46.970Z,100608.48
2023-03-19T08:57:13.713Z,100605.19
2023-03-19T08:59:40.762Z,100606.63
2023-03-19T09:02:10.002Z,100600.29
2023-03-19T09:06:14.356Z,100598.59
2023-03-19T09:08:58.029Z,100601.02
2023-03-19T09:11:26.801Z,100598.22
2023-03-19T09:13:54.812Z,100595.19
2023-03-19T09:16:21.962Z,100595.13
2023-03-19T09:18:50.601Z,100586.58
2023-03-19T09:21:17.875Z,100591.60
2023-03-19T09:23:44.974Z,100590.89
2023-03-19T09:26:15.116Z,100585.84
2023-03-19T09:28:42.157Z,100582.88
2023-03-19T09:31:11.005Z,100578.34
2023-03-19T09:33:38.205Z,100574.09
2023-03-19T09:36:05.413Z,100568.61
2023-03-19T09:38:34.736Z,100563.81
2023-03-19T09:41:06.929Z,100561.02
2023-03-19T09:43:57.161Z,100561.16
2023-03-19T09:46:28.893Z,100563.73
2023-03-19T09:49:28.757Z,100566.31
2023-03-19T09:52:02.931Z,100564.64
2023-03-19T09:54:42.091Z,100563.73
2023-03-19T09:57:09.341Z,100556.83
2023-03-19T09:59:36.726Z,100550.92
2023-03-19T10:02:21.273Z,100549.52
2023-03-19T10:04:55.391Z,100546.66
2023-03-19T10:07:32.040Z,100545.52
2023-03-19T10:10:25.505Z,100538.42
2023-03-19T10:12:57.327Z,100539.40
2023-03-19T10:15:29.216Z,100530.31
2023-03-19T10:18:17.346Z,100522.65
2023-03-19T10:21:05.340Z,100517.78
2023-03-19T10:23:39.385Z,100512.68
2023-03-19T10:26:11.501Z,100505.02
2023-03-19T10:28:41.679Z,100504.87
2023-03-19T10:31:26.371Z,100497.14
2023-03-19T10:34:18.908Z,100489.38
2023-03-19T10:36:46.887Z,100483.79
2023-03-19T10:39:18.600Z,100487.66
2023-03-19T10:42:21.270Z,100483.09
2023-03-19T10:44:58.867Z,100479.31
2023-03-19T10:47:35.659Z,100471.95
2023-03-19T10:50:02.883Z,100471.09
2023-03-19T10:52:37.218Z,100471.55
2023-03-19T10:55:20.632Z,100461.61
2023-03-19T10:57:54.096Z,100460.98
2023-03-19T11:00:26.483Z,100455.13
2023-03-19T11:02:55.936Z,100450.55
2023-03-19T11:05:24.700Z,100448.36
2023-03-19T11:08:08.782Z,100441.59
2023-03-19T11:10:39.466Z,100436.24
2023-03-19T11:13:15.524Z,100436.04
2023-03-19T11:15:48.269Z,100429.52
2023-03-19T11:18:20.884Z,100425.56
2023-03-19T11:20:59.120Z,100426.27
2023-03-19T11:23:37.617Z,100425.77
2023-03-19T11:26:04.602Z,100425.30
2023-03-19T11:28:34.176Z,100427.11
2023-03-19T11:31:13.150Z,100431.15
2023-03-19T11:34:07.268Z,100428.47
2023-03-19T11:37:02.942Z,100418.58
2023-03-19T11:39:36.856Z,100415.22
2023-03-19T11:42:26.503Z,100411.48
2023-03-19T11:45:15.643Z,100407.64
2023-03-19T11:48:00.846Z,100408.52
2023-03-19T11:50:35.930Z,100407.52
2023-03-19T11:53:08.872Z,100401.30
2023-03-19T11:55:41.818Z,100396.77
2023-03-19T11:58:57.090Z,100393.45
2023-03-19T12:01:54.923Z,100384.52
2023-03-19T12:04:28.085Z,100380.98
2023-03-19T12:07:01.782Z,100375.98
2023-03-19T12:09:35.569Z,100373.44
2023-03-19T12:12:07.501Z,100374.61
2023-03-19T12:14:51.365Z,100372.77
2023-03-19T12:17:22.573Z,100363.66
2023-03-19T12:20:00.577Z,100359.64
2023-03-19T12:22:45.758Z,100361.59
2023-03-19T12:25:19.103Z,100360.48
2023-03-19T12:27:45.822Z,100358.33
2023-03-19T12:30:27.560Z,100353.59
2023-03-19T12:33:12.419Z,100345.61
2023-03-19T12:35:41.422Z,100342.46
2023-03-19T12:38:12.726Z,100336.70
2023-03-19T12:40:52.146Z,100336.24
2023-03-19T12:43:24.320Z,100332.82
2023-03-19T12:45:55.671Z,100326.85
2023-03-19T12:48:31.385Z,100324.35
2023-03-19T12:51:03.014Z,100326.98
2023-03-19T12:53:44.057Z,100323.74
2023-03-19T12:56:45.373Z,100321.28
2023-03-19T12:59:30.439Z,100320.30
2023-03-19T13:02:09.950Z,100320.66
2023-03-19T13:04:48.096Z,100315.83
2023-03-19T13:07:20.876Z,100313.80
2023-03-19T13:09:57.188Z,100310.13
2023-03-19T13:12:31.638Z,100307.05
2023-03-19T13:15:09.922Z,100302.81
2023-03-19T13:17:43.203Z,100294.23
2023-03-19T13:20:23.803Z,100295.00
2023-03-19T13:22:56.152Z,100295.96
2023-03-19T13:25:36.370Z,100290.48
2023-03-19T13:28:03.069Z,100287.91
2023-03-19T13:30:30.841Z,100286.84
2023-03-19T13:33:05.708Z,100284.42
2023-03-19T13:35:42.645Z,100280.80
2023-03-19T13:38:20.551Z,100277.20
2023-03-19T13:40:49.455Z,100278.34
2023-03-19T13:43:29.122Z,100282.39
2023-03-19T13:46:11.312Z,100272.83
2023-03-19T13:48:44.960Z,100264.30
2023-03-19T13:51:11.951Z,100265.32
2023-03-19T13:53:41.902Z,100268.11
2023-03-19T13:56:22.519Z,100264.67
2023-03-19T13:59:14.130Z,100263.38
2023-03-19T14:01:44.061Z,100259.11
2023-03-19T14:04:21.939Z,100255.63
2023-03-19T14:06:50.942Z,100257.39
2023-03-19T14:09:38.840Z,100257.08
2023-03-19T14:12:14.736Z,100259.66
2023-03-19T14:14:57.994Z,100255.96
2023-03-19T14:17:25.185Z,100257.60
2023-03-19T14:19:53.127Z,100248.92
2023-03-19T14:22:32.045Z,100248.23
2023-03-19T14:25:17.968Z,100248.16
2023-03-19T14:28:00.169Z,100247.41
2023-03-19T14:30:33.465Z,100243.73
2023-03-19T14:33:03.992Z,100240.17
2023-03-19T14:35:33.214Z,100243.09
2023-03-19T14:38:02.843Z,100244.21
2023-03-19T14:40:39.061Z,100241.58
2023-03-19T14:43:34.082Z,100243.69
2023-03-19T14:46:06.746Z,100240.25
2023-03-19T14:49:11.832Z,100242.23
2023-03-19T14:51:57.260Z,100242.70
2023-03-19T14:54:29.754Z,100240.77
2023-03-19T14:56:57.205Z,100242.05
2023-03-19T14:59:24.349Z,100244.30
2023-03-19T15:01:52.551Z,100241.00
2023-03-19T15:04:23.850Z,100239.52
2023-03-19T15:06:57.050Z,100236.23
2023-03-19T15:09:44.104Z,100238.92
2023-03-19T15:12:33.018Z,100237.73
2023-03-19T15:15:09.505Z,100234.79
2023-03-19T15:17:49.220Z,100232.27
2023-03-19T15:20:34.640Z,100234.79
2023-03-19T15:23:16.362Z,100236.31
2023-03-19T15:25:57.636Z,100237.30
2023-03-19T15:28:30.029Z,100233.57
2023-03-19T15:31:14.459Z,100229.67
2023-03-19T15:33:50.372Z,100231.34
2023-03-19T15:36:37.944Z,100227.71
2023-03-19T15:39:07.079Z,100229.60
2023-03-19T15:41:35.935Z,100232.52
2023-03-19T15:44:05.429Z,100234.95
2023-03-19T15:46:33.738Z,100236.48
2023-03-19T15:49:38.452Z,100239.14
2023-03-19T15:52:08.736Z,100239.29
2023-03-19T15:54:37.292Z,100237.98
2023-03-19T15:57:05.367Z,100235.91
2023-03-19T15:59:32.600Z,100235.93
2023-03-19T16:02:00.476Z,100233.80
2023-03-19T16:04:29.646Z,100238.96
2023-03-19T16:06:57.531Z,100244.83
2023-03-19T16:09:31.300Z,100245.27
2023-03-19T16:11:58.314Z,100246.33
2023-03-19T16:14:40.332Z,100245.31
2023-03-19T16:17:13.928Z,100244.45
2023-03-19T16:19:55.455Z,100242.95
2023-03-19T16:22:31.757Z,100243.09
2023-03-19T16:24:59.038Z,100240.81
2023-03-19T16:27:33.472Z,100234.63
2023-03-19T16:30:13.748Z,100236.67
2023-03-19T16:32:41.939Z,100238.06
2023-03-19T16:35:16.039Z,100238.09
2023-03-19T16:37:44.277Z,100240.96
2023-03-19T16:40:11.600Z,100240.10
2023-03-19T16:42:40.091Z,100239.77
2023-03-19T16:45:25.428Z,100241.30
2023-03-19T16:47:53.361Z,100245.34
2023-03-19T16:50:24.032Z,100252.25
2023-03-19T16:52:51.029Z,100252.27
2023-03-19T16:55:19.361Z,100255.43
2023-03-19T16:57:51.979Z,100259.00
2023-03-19T17:00:19.835Z,100256.20
2023-03-19T17:02:47.520Z,100254.91
2023-03-19T17:05:15.682Z,100256.11
2023-03-19T17:07:44.185Z,100252.13
2023-03-19T17:10:15.492Z,100252.72
2023-03-19T17:12:42.791Z,100249.90
2023-03-19T17:15:29.905Z,100250.11
2023-03-19T17:17:58.178Z,100248.73
2023-03-19T17:20:31.347Z,100253.52
2023-03-19T17:22:59.013Z,100253.21
2023-03-19T17:25:27.189Z,100246.17
2023-03-19T17:27:54.011Z,100244.35
2023-03-19T17:30:21.091Z,100236.73
2023-03-19T17:32:50.366Z,100238.58
2023-03-19T17:35:20.889Z,100243.53
2023-03-19T17:37:48.159Z,100240.97
2023-03-19T17:40:28.520Z,100240.14
2023-03-19T17:42:57.212Z,100243.30
2023-03-19T17:45:27.082Z,100244.91
2023-03-19T17:47:57.515Z,100243.45
2023-03-19T17:50:28.906Z,100240.27
2023-03-19T17:52:55.660Z,100238.36
2023-03-19T17:55:28.872Z,100237.39
2023-03-19T17:57:56.314Z,100237.20
2023-03-19T18:00:23.727Z,100236.12
2023-03-19T18:02:52.202Z,100237.39
2023-03-19T18:05:21.199Z,100238.89
2023-03-19T18:07:54.745Z,100242.73
2023-03-19T18:10:26.985Z,100240.14
2023-03-19T18:12:54.027Z,100239.95
2023-03-19T18:15:23.125Z,100239.60
2023-03-19T18:17:55.593Z,100242.20
2023-03-19T18:20:24.820Z,100245.65
2023-03-19T18:22:56.050Z,100245.92
2023-03-19T18:25:25.545Z,100244.61
2023-03-19T18:27:52.499Z,100243.53
2023-03-19T18:30:22.395Z,100244.67
2023-03-19T18:32:52.121Z,100243.44
2023-03-19T18:35:21.273Z,100245.16
2023-03-19T18:37:50.038Z,100245.47
2023-03-19T18:40:21.776Z,100247.30
2023-03-19T18:42:48.893Z,100247.79
2023-03-19T18:45:16.759Z,100248.73
2023-03-19T18:47:44.300Z,100249.02
2023-03-19T18:50:19.069Z,100250.36
2023-03-19T18:52:47.579Z,100248.90
2023-03-19T18:55:14.449Z,100250.90
2023-03-19T18:57:53.224Z,100250.20
2023-03-19T19:00:26.144Z,100257.58
2023-03-19T19:02:54.837Z,100257.63
2023-03-19T19:05:23.673Z,100258.16
2023-03-19T19:07:50.938Z,100259.43
2023-03-19T19:10:18.025Z,100261.38
2023-03-19T19:12:46.884Z,100258.64
2023-03-19T19:15:24.932Z,100258.36
2023-03-19T19:17:53.989Z,100255.93
2023-03-19T19:20:23.755Z,100254.07
2023-03-19T19:22:51.264Z,100255.81
2023-03-19T19:25:22.918Z,100259.63
2023-03-19T19:28:20.513Z,100263.61
2023-03-19T19:30:48.689Z,100261.04
2023-03-19T19:33:19.933Z,100260.64
2023-03-19T19:35:46.576Z,100257.38
2023-03-19T19:38:13.552Z,100257.17
2023-03-19T19:40:44.450Z,100253.08
2023-03-19T19:43:27.405Z,100250.56
2023-03-19T19:45:54.882Z,100253.41
2023-03-19T19:48:26.794Z,100255.23
2023-03-19T19:50:54.567Z,100255.83
2023-03-19T19:53:24.523Z,100255.11
2023-03-19T19:55:54.193Z,100253.05
2023-03-19T19:58:26.661Z,100255.35
2023-03-19T20:01:03.287Z,100254.01
2023-03-19T20:03:31.862Z,100253.95
2023-03-19T20:05:59.597Z,100249.69
2023-03-19T20:08:28.038Z,100257.41
2023-03-19T20:10:55.460Z,100259.74
2023-03-19T20:13:25.858Z,100261.58
2023-03-19T20:15:57.425Z,100265.27
2023-03-19T20:18:30.809Z,100263.90
2023-03-19T20:20:57.714Z,100261.09
2023-03-19T20:23:25.051Z,100259.99
2023-03-19T20:25:52.020Z,100257.26
2023-03-19T20:28:26.965Z,100258.66
2023-03-19T20:30:54.934Z,100256.09
2023-03-19T20:33:21.847Z,100255.48
2023-03-19T20:35:50.255Z,100256.96
2023-03-19T20:38:17.430Z,100256.70
2023-03-19T20:40:55.003Z,100249.02
2023-03-19T20:43:28.393Z,100251.08
2023-03-19T20:45:57.045Z,100253.33
2023-03-19T20:48:24.416Z,100249.30
2023-03-19T20:50:51.726Z,100248.05
2023-03-19T20:53:18.502Z,100245.11
2023-03-19T20:55:47.327Z,100246.16
2023-03-19T20:58:17.022Z,100245.28
2023-03-19T21:00:44.177Z,100244.64
2023-03-19T21:03:21.847Z,100249.35
2023-03-19T21:05:51.219Z,100251.14
2023-03-19T21:08:42.515Z,100253.71
2023-03-19T21:11:17.217Z,100259.60
2023-03-19T21:13:48.971Z,100265.56
2023-03-19T21:16:25.513Z,100263.33
2023-03-19T21:18:56.555Z,100267.55
2023-03-19T21:24:07.550Z,100265.78
2023-03-19T21:26:36.593Z,100265.65
2023-03-19T21:29:06.660Z,100265.23
2023-03-19T21:31:36.885Z,100264.91
2023-03-19T21:34:05.704Z,100266.69
2023-03-19T21:36:32.738Z,100267.60
2023-03-19T21:39:01.528Z,100267.27
2023-03-19T21:41:31.419Z,100267.15
2023-03-19T21:44:14.117Z,100267.03
2023-03-19T21:46:41.900Z,100262.65
2023-03-19T21:49:10.657Z,100261.51
2023-03-19T21:51:43.664Z,100262.63
2023-03-19T21:54:11.006Z,100267.69
2023-03-19T21:56:40.081Z,100266.99
2023-03-19T21:59:16.148Z,100264.08
2023-03-19T22:01:42.804Z,100262.01
2023-03-19T22:04:09.757Z,100264.91
2023-03-19T22:06:37.048Z,100265.21
2023-03-19T22:09:04.125Z,100261.31
2023-03-19T22:11:34.055Z,100258.59
2023-03-19T22:14:11.837Z,100257.73
2023-03-19T22:16:42.025Z,100251.06
2023-03-19T22:19:17.140Z,100245.98
2023-03-19T22:21:45.063Z,100241.55
2023-03-19T22:24:12.115Z,100243.33
2023-03-19T22:26:40.355Z,100240.68
2023-03-19T22:29:18.777Z,100237.51
2023-03-19T22:31:48.067Z,100234.77
2023-03-19T22:34:16.242Z,100236.42
2023-03-19T22:36:49.793Z,100235.98
2023-03-19T22:39:16.932Z,100232.86
2023-03-19T22:41:50.301Z,100237.78
2023-03-19T22:44:30.762Z,100237.31
2023-03-19T22:46:59.385Z,100236.04
2023-03-19T22:49:27.675Z,100236.36
2023-03-19T22:51:56.404Z,100237.69
2023-03-19T22:54:23.689Z,100237.65
2023-03-19T22:56:51.812Z,100239.66
2023-03-19T22:59:22.423Z,100237.48
2023-03-19T23:01:50.649Z,100236.61
2023-03-19T23:04:23.707Z,100237.43
2023-03-19T23:06:52.291Z,100238.73
2023-03-19T23:09:30.329Z,100233.38
2023-03-19T23:11:58.803Z,100229.51
2023-03-19T23:14:30.645Z,100225.70
2023-03-19T23:17:01.097Z,100227.70
2023-03-19T23:19:32.484Z,100230.69
2023-03-19T23:22:00.715Z,100226.14
2023-03-19T23:24:30.937Z,100223.20
2023-03-19T23:27:04.478Z,100219.92
2023-03-19T23:29:37.167Z,100217.57
2023-03-19T23:32:04.421Z,100214.61
2023-03-19T23:34:33.527Z,100210.55
2023-03-19T23:37:02.234Z,100207.25
2023-03-19T23:39:30.913Z,100205.75
2023-03-19T23:41:58.524Z,100207.97
2023-03-19T23:44:28.447Z,100210.16
2023-03-19T23:46:55.683Z,100210.11
2023-03-19T23:49:31.835Z,100209.73
2023-03-19T23:51:59.927Z,100211.41
2023-03-19T23:54:31.775Z,100209.91
2023-03-19T23:57:00.976Z,100207.11
2023-03-19T23:59:31.071Z,100208.50
